sensor_id;sensor_type;location;lat;lon;timestamp;temperature;humidity
19516;DHT22;9901;47.448;7.692;2022-11-12T12:13:02;13.80;99.90
19516;DHT22;9901;47.448;7.692;2022-11-12T12:15:46;13.80;99.90
19516;DHT22;9901;47.448;7.692;2022-11-12T12:20:58;13.90;99.90
19516;DHT22;9901;47.448;7.692;2022-11-12T12:23:55;13.90;99.90
19516;DHT22;9901;47.448;7.692;2022-11-12T12:26:36;13.90;99.90
19516;DHT22;9901;47.448;7.692;2022-11-12T12:31:39;14.00;99.90
19516;DHT22;9901;47.448;7.692;2022-11-12T12:34:25;14.10;99.90
19516;DHT22;9901;47.448;7.692;2022-11-12T12:37:47;14.10;99.90
19516;DHT22;9901;47.448;7.692;2022-11-12T12:40:18;14.20;99.90
19516;DHT22;9901;47.448;7.692;2022-11-12T12:45:41;14.10;99.90
19516;DHT22;9901;47.448;7.692;2022-11-12T12:48:29;14.10;99.90
19516;DHT22;9901;47.448;7.692;2022-11-12T12:50:56;14.10;99.90
19516;DHT22;9901;47.448;7.692;2022-11-12T12:55:56;14.00;99.90
19516;DHT22;9901;47.448;7.692;2022-11-12T12:58:32;13.80;99.90
19516;DHT22;9901;47.448;7.692;2022-11-12T13:01:39;13.80;99.90
19516;DHT22;9901;47.448;7.692;2022-11-12T13:07:09;13.60;99.90
19516;DHT22;9901;47.448;7.692;2022-11-12T13:09:38;13.50;99.90
19516;DHT22;9901;47.448;7.692;2022-11-12T13:12:07;13.40;99.90
19516;DHT22;9901;47.448;7.692;2022-11-12T13:17:09;13.30;99.90
19516;DHT22;9901;47.448;7.692;2022-11-12T13:40:44;13.00;99.90
19516;DHT22;9901;47.448;7.692;2022-11-12T13:43:36;13.00;99.90
19516;DHT22;9901;47.448;7.692;2022-11-12T13:46:30;13.00;99.90
19516;DHT22;9901;47.448;7.692;2022-11-12T13:49:05;12.90;99.90
19516;DHT22;9901;47.448;7.692;2022-11-12T13:51:46;12.80;99.90
19516;DHT22;9901;47.448;7.692;2022-11-12T13:54:39;12.90;99.90
19516;DHT22;9901;47.448;7.692;2022-11-12T13:57:34;12.80;99.90
19516;DHT22;9901;47.448;7.692;2022-11-12T14:00:28;12.80;99.90
19516;DHT22;9901;47.448;7.692;2022-11-12T14:02:58;12.70;99.90
19516;DHT22;9901;47.448;7.692;2022-11-12T14:05:30;12.70;99.90
19516;DHT22;9901;47.448;7.692;2022-11-12T14:16:22;12.60;99.90
19516;DHT22;9901;47.448;7.692;2022-11-12T14:21:41;12.50;99.90
19516;DHT22;9901;47.448;7.692;2022-11-12T14:24:09;12.40;99.90
19516;DHT22;9901;47.448;7.692;2022-11-12T14:26:39;12.50;99.90
19516;DHT22;9901;47.448;7.692;2022-11-12T14:29:05;12.40;99.90
19516;DHT22;9901;47.448;7.692;2022-11-12T14:31:31;12.40;99.90
19516;DHT22;9901;47.448;7.692;2022-11-12T14:34:29;12.30;99.90
19516;DHT22;9901;47.448;7.692;2022-11-12T14:36:56;12.30;99.90
19516;DHT22;9901;47.448;7.692;2022-11-12T14:39:25;12.30;99.90
19516;DHT22;9901;47.448;7.692;2022-11-12T14:42:03;12.30;99.90
19516;DHT22;9901;47.448;7.692;2022-11-12T14:44:49;12.20;99.90
19516;DHT22;9901;47.448;7.692;2022-11-12T14:47:16;12.20;99.90
19516;DHT22;9901;47.448;7.692;2022-11-12T14:49:45;12.10;99.90
19516;DHT22;9901;47.448;7.692;2022-11-12T14:52:21;12.10;99.90
19516;DHT22;9901;47.448;7.692;2022-11-12T14:54:53;12.10;99.90
19516;DHT22;9901;47.448;7.692;2022-11-12T14:57:27;12.10;99.90
19516;DHT22;9901;47.448;7.692;2022-11-12T14:59:55;12.00;99.90
19516;DHT22;9901;47.448;7.692;2022-11-12T15:02:31;11.90;99.90
19516;DHT22;9901;47.448;7.692;2022-11-12T15:05:25;11.90;99.90
19516;DHT22;9901;47.448;7.692;2022-11-12T15:08:02;11.90;99.90
19516;DHT22;9901;47.448;7.692;2022-11-12T15:10:41;11.80;99.90
19516;DHT22;9901;47.448;7.692;2022-11-12T15:13:13;11.80;99.90
19516;DHT22;9901;47.448;7.692;2022-11-12T15:16:01;11.70;99.90
19516;DHT22;9901;47.448;7.692;2022-11-12T15:18:29;11.70;99.90
19516;DHT22;9901;47.448;7.692;2022-11-12T15:23:48;11.50;99.90
19516;DHT22;9901;47.448;7.692;2022-11-12T15:26:23;11.50;99.90
19516;DHT22;9901;47.448;7.692;2022-11-12T15:29:45;11.40;99.90
19516;DHT22;9901;47.448;7.692;2022-11-12T15:34:46;11.30;99.90
19516;DHT22;9901;47.448;7.692;2022-11-12T15:39:57;11.10;99.90
19516;DHT22;9901;47.448;7.692;2022-11-12T15:42:30;11.10;99.90
19516;DHT22;9901;47.448;7.692;2022-11-12T15:45:04;11.00;99.90
19516;DHT22;9901;47.448;7.692;2022-11-12T15:47:33;11.00;99.90
19516;DHT22;9901;47.448;7.692;2022-11-12T15:49:59;10.90;99.90
19516;DHT22;9901;47.448;7.692;2022-11-12T15:52:25;10.90;99.90
19516;DHT22;9901;47.448;7.692;2022-11-12T15:54:51;10.90;99.90
19516;DHT22;9901;47.448;7.692;2022-11-12T15:57:22;10.80;99.90
19516;DHT22;9901;47.448;7.692;2022-11-12T15:59:58;10.80;99.90
19516;DHT22;9901;47.448;7.692;2022-11-12T16:02:34;10.70;99.90
19516;DHT22;9901;47.448;7.692;2022-11-12T16:05:00;10.60;99.90
19516;DHT22;9901;47.448;7.692;2022-11-12T16:07:26;10.60;99.90
19516;DHT22;9901;47.448;7.692;2022-11-12T16:09:52;10.60;99.90
19516;DHT22;9901;47.448;7.692;2022-11-12T16:12:18;10.60;99.90
19516;DHT22;9901;47.448;7.692;2022-11-12T16:20:24;10.40;99.90
19516;DHT22;9901;47.448;7.692;2022-11-12T16:22:50;10.40;99.90
19516;DHT22;9901;47.448;7.692;2022-11-12T16:25:18;10.30;99.90
19516;DHT22;9901;47.448;7.692;2022-11-12T16:27:47;10.30;99.90
19516;DHT22;9901;47.448;7.692;2022-11-12T16:30:18;10.40;99.90
19516;DHT22;9901;47.448;7.692;2022-11-12T16:32:45;10.30;99.90
19516;DHT22;9901;47.448;7.692;2022-11-12T16:35:15;10.20;99.90
19516;DHT22;9901;47.448;7.692;2022-11-12T16:37:45;10.20;99.90
19516;DHT22;9901;47.448;7.692;2022-11-12T16:40:19;10.10;99.90
19516;DHT22;9901;47.448;7.692;2022-11-12T16:42:45;10.10;99.90
19516;DHT22;9901;47.448;7.692;2022-11-12T16:45:15;10.00;99.90
19516;DHT22;9901;47.448;7.692;2022-11-12T16:47:53;10.00;99.90
19516;DHT22;9901;47.448;7.692;2022-11-12T16:50:23;10.00;99.90
19516;DHT22;9901;47.448;7.692;2022-11-12T16:52:49;10.00;99.90
19516;DHT22;9901;47.448;7.692;2022-11-12T16:55:36;10.00;99.90
19516;DHT22;9901;47.448;7.692;2022-11-12T16:58:02;9.90;99.90
19516;DHT22;9901;47.448;7.692;2022-11-12T17:00:28;9.90;99.90
19516;DHT22;9901;47.448;7.692;2022-11-12T17:02:56;9.90;99.90
19516;DHT22;9901;47.448;7.692;2022-11-12T17:05:24;9.80;99.90
19516;DHT22;9901;47.448;7.692;2022-11-12T17:07:55;9.80;99.90
19516;DHT22;9901;47.448;7.692;2022-11-12T17:10:32;9.70;99.90
19516;DHT22;9901;47.448;7.692;2022-11-12T17:12:58;9.70;99.90
19516;DHT22;9901;47.448;7.692;2022-11-12T17:15:27;9.60;99.90
19516;DHT22;9901;47.448;7.692;2022-11-12T17:17:53;9.60;99.90
19516;DHT22;9901;47.448;7.692;2022-11-12T17:20:19;9.60;99.90
19516;DHT22;9901;47.448;7.692;2022-11-12T17:23:02;9.50;99.90
19516;DHT22;9901;47.448;7.692;2022-11-12T17:25:30;9.50;99.90
19516;DHT22;9901;47.448;7.692;2022-11-12T17:27:56;9.40;99.90
19516;DHT22;9901;47.448;7.692;2022-11-12T17:30:22;9.30;99.90
19516;DHT22;9901;47.448;7.692;2022-11-12T17:32:48;9.30;99.90
19516;DHT22;9901;47.448;7.692;2022-11-12T17:35:17;9.30;99.90
19516;DHT22;9901;47.448;7.692;2022-11-12T17:37:42;9.20;99.90
19516;DHT22;9901;47.448;7.692;2022-11-12T17:40:09;9.20;99.90
19516;DHT22;9901;47.448;7.692;2022-11-12T17:42:41;9.20;99.90
19516;DHT22;9901;47.448;7.692;2022-11-12T17:45:07;9.10;99.90
19516;DHT22;9901;47.448;7.692;2022-11-12T17:47:34;9.10;99.90
19516;DHT22;9901;47.448;7.692;2022-11-12T17:49:59;9.10;99.90
19516;DHT22;9901;47.448;7.692;2022-11-12T17:52:25;9.00;99.90
19516;DHT22;9901;47.448;7.692;2022-11-12T17:54:51;9.00;99.90
19516;DHT22;9901;47.448;7.692;2022-11-12T17:57:19;9.00;99.90
19516;DHT22;9901;47.448;7.692;2022-11-12T17:59:44;8.90;99.90
19516;DHT22;9901;47.448;7.692;2022-11-12T18:02:11;8.90;99.90
19516;DHT22;9901;47.448;7.692;2022-11-12T18:04:36;8.90;99.90
19516;DHT22;9901;47.448;7.692;2022-11-12T18:07:02;8.80;99.90
19516;DHT22;9901;47.448;7.692;2022-11-12T18:09:31;8.90;99.90
19516;DHT22;9901;47.448;7.692;2022-11-12T18:11:56;8.80;99.90
19516;DHT22;9901;47.448;7.692;2022-11-12T18:14:23;8.80;99.90
19516;DHT22;9901;47.448;7.692;2022-11-12T18:16:50;8.70;99.90
19516;DHT22;9901;47.448;7.692;2022-11-12T18:19:16;8.70;99.90
19516;DHT22;9901;47.448;7.692;2022-11-12T18:21:44;8.70;99.90
19516;DHT22;9901;47.448;7.692;2022-11-12T18:24:15;8.70;99.90
19516;DHT22;9901;47.448;7.692;2022-11-12T18:26:41;8.60;99.90
19516;DHT22;9901;47.448;7.692;2022-11-12T18:29:07;8.60;99.90
19516;DHT22;9901;47.448;7.692;2022-11-12T18:31:33;8.60;99.90
19516;DHT22;9901;47.448;7.692;2022-11-12T18:33:59;8.50;99.90
19516;DHT22;9901;47.448;7.692;2022-11-12T18:36:25;8.40;99.90
19516;DHT22;9901;47.448;7.692;2022-11-12T18:38:54;8.40;99.90
19516;DHT22;9901;47.448;7.692;2022-11-12T18:41:22;8.40;99.90
19516;DHT22;9901;47.448;7.692;2022-11-12T18:43:51;8.40;99.90
19516;DHT22;9901;47.448;7.692;2022-11-12T18:46:17;8.40;99.90
19516;DHT22;9901;47.448;7.692;2022-11-12T18:48:43;8.40;99.90
19516;DHT22;9901;47.448;7.692;2022-11-12T18:51:12;8.30;99.90
19516;DHT22;9901;47.448;7.692;2022-11-12T18:53:39;8.30;99.90
19516;DHT22;9901;47.448;7.692;2022-11-12T18:56:17;8.20;99.90
19516;DHT22;9901;47.448;7.692;2022-11-12T19:01:19;8.20;99.90
19516;DHT22;9901;47.448;7.692;2022-11-12T19:03:45;8.10;99.90
19516;DHT22;9901;47.448;7.692;2022-11-12T19:06:12;8.10;99.90
19516;DHT22;9901;47.448;7.692;2022-11-12T19:08:39;8.00;99.90
19516;DHT22;9901;47.448;7.692;2022-11-12T19:11:07;8.00;99.90
19516;DHT22;9901;47.448;7.692;2022-11-12T19:13:44;8.00;99.90
19516;DHT22;9901;47.448;7.692;2022-11-12T19:16:12;8.00;99.90
19516;DHT22;9901;47.448;7.692;2022-11-12T19:18:40;8.00;99.90
19516;DHT22;9901;47.448;7.692;2022-11-12T19:21:08;7.90;99.90
19516;DHT22;9901;47.448;7.692;2022-11-12T19:23:35;7.90;99.90
19516;DHT22;9901;47.448;7.692;2022-11-12T19:26:02;7.90;99.90
19516;DHT22;9901;47.448;7.692;2022-11-12T19:28:31;7.90;99.90
19516;DHT22;9901;47.448;7.692;2022-11-12T19:30:57;7.80;99.90
19516;DHT22;9901;47.448;7.692;2022-11-12T19:33:27;7.80;99.90
19516;DHT22;9901;47.448;7.692;2022-11-12T19:35:52;7.70;99.90
19516;DHT22;9901;47.448;7.692;2022-11-12T19:38:18;7.80;99.90
19516;DHT22;9901;47.448;7.692;2022-11-12T19:40:44;7.70;99.90
19516;DHT22;9901;47.448;7.692;2022-11-12T19:43:10;7.70;99.90
19516;DHT22;9901;47.448;7.692;2022-11-12T19:45:36;7.60;99.90
19516;DHT22;9901;47.448;7.692;2022-11-12T19:48:02;7.60;99.90
19516;DHT22;9901;47.448;7.692;2022-11-12T19:50:29;7.60;99.90
19516;DHT22;9901;47.448;7.692;2022-11-12T19:52:59;7.60;99.90
19516;DHT22;9901;47.448;7.692;2022-11-12T19:55:25;7.50;99.90
19516;DHT22;9901;47.448;7.692;2022-11-12T19:57:53;7.50;99.90
19516;DHT22;9901;47.448;7.692;2022-11-12T20:00:19;7.40;99.90
19516;DHT22;9901;47.448;7.692;2022-11-12T20:02:45;7.40;99.90
19516;DHT22;9901;47.448;7.692;2022-11-12T20:05:11;7.40;99.90
19516;DHT22;9901;47.448;7.692;2022-11-12T20:07:37;7.40;99.90
19516;DHT22;9901;47.448;7.692;2022-11-12T20:10:03;7.30;99.90
19516;DHT22;9901;47.448;7.692;2022-11-12T20:12:29;7.40;99.90
19516;DHT22;9901;47.448;7.692;2022-11-12T20:14:55;7.40;99.90
19516;DHT22;9901;47.448;7.692;2022-11-12T20:17:21;7.40;99.90
19516;DHT22;9901;47.448;7.692;2022-11-12T20:20:07;7.30;99.90
19516;DHT22;9901;47.448;7.692;2022-11-12T20:22:36;7.30;99.90
19516;DHT22;9901;47.448;7.692;2022-11-12T20:25:02;7.30;99.90
19516;DHT22;9901;47.448;7.692;2022-11-12T20:27:28;7.30;99.90
19516;DHT22;9901;47.448;7.692;2022-11-12T20:29:54;7.20;99.90
